NK7E Weather Reports


Display with metric or nautical units.
time (UTC)temp
F
wind
direction
speed
MPH
gust
MPH
rain 1hr
in
rain 24hr
in
rain mn
in
humidity
%
barometer
mb
20240224024017 64 293 4.0 8.0 0.00 0.00 0.00 43 1017.5
20240224023017 64 293 5.0 10.0 0.00 0.00 0.00 42 1017.3
20240224022017 65 270 7.0 11.0 0.00 0.00 0.00 41 1017.3
20240224021017 65 270 6.0 11.0 0.00 0.00 0.00 41 1017.2
20240224020017 66 293 7.0 11.0 0.00 0.00 0.00 40 1017.1
20240224015017 66 293 7.0 12.0 0.00 0.00 0.00 40 1017.0
20240224014017 67 270 7.0 11.0 0.00 0.00 0.00 40 1016.8
20240224013017 67 293 6.0 10.0 0.00 0.00 0.00 40 1016.7
20240224012017 67 293 6.0 10.0 0.00 0.00 0.00 39 1016.8
20240224011017 68 270 5.0 8.0 0.00 0.00 0.00 39 1016.6
20240224010017 69 270 6.0 11.0 0.00 0.00 0.00 38 1016.7
20240224005017 69 270 6.0 9.0 0.00 0.00 0.00 38 1016.6
20240224004017 70 270 5.0 10.0 0.00 0.00 0.00 38 1016.5
20240224003017 70 270 6.0 11.0 0.00 0.00 0.00 37 1016.4
20240224002017 71 270 5.0 10.0 0.00 0.00 0.00 36 1016.4
20240224001017 71 270 7.0 13.0 0.00 0.00 0.00 35 1016.2
20240224000017 72 270 6.0 11.0 0.00 0.00 0.00 31 1016.1
20240223235017 72 248 4.0 10.0 0.00 0.00 0.00 32 1016.0
20240223234017 72 248 3.0 9.0 0.00 0.00 0.00 31 1016.1
20240223233017 72 248 3.0 7.0 0.00 0.00 0.00 31 1016.1
20240223232017 72 270 5.0 8.0 0.00 0.00 0.00 32 1016.0
20240223231017 72 270 6.0 11.0 0.00 0.00 0.00 32 1016.1
20240223230017 73 270 5.0 10.0 0.00 0.00 0.00 33 1016.2
20240223225017 73 248 5.0 11.0 0.00 0.00 0.00 34 1016.3
20240223224017 73 248 3.0 7.0 0.00 0.00 0.00 32 1016.5
20240223223017 71 270 6.0 10.0 0.00 0.00 0.00 36 1016.7
20240223222017 71 270 5.0 9.0 0.00 0.00 0.00 35 1016.8
20240223221017 71 270 5.0 9.0 0.00 0.00 0.00 36 1017.0
20240223220017 69 270 7.0 12.0 0.00 0.00 0.00 37 1017.0
20240223215017 69 270 4.0 11.0 0.00 0.00 0.00 37 1017.0
20240223214017 69 270 6.0 11.0 0.00 0.00 0.00 36 1017.2
20240223213017 70 270 5.0 10.0 0.00 0.00 0.00 34 1017.3
20240223212017 70 248 4.0 8.0 0.00 0.00 0.00 33 1017.3
20240223211017 70 270 2.0 4.0 0.00 0.00 0.00 34 1017.3
20240223210017 69 270 3.0 9.0 0.00 0.00 0.00 36 1017.5
20240223205017 70 270 3.0 7.0 0.00 0.00 0.00 34 1017.5
20240223204017 70 270 4.0 8.0 0.00 0.00 0.00 34 1017.5
20240223203017 69 270 2.0 6.0 0.00 0.00 0.00 34 1017.8
20240223202017 69 270 4.0 8.0 0.00 0.00 0.00 34 1017.9
20240223201017 69 248 3.0 6.0 0.00 0.00 0.00 34 1018.0
20240223200017 69 203 3.0 8.0 0.00 0.00 0.00 33 1018.2
20240223195017 69 180 1.0 5.0 0.00 0.00 0.00 33 1018.4
20240223194020 69 225 2.0 5.0 0.00 0.00 0.00 34 1018.7
20240223193017 69 203 4.0 7.0 0.00 0.00 0.00 34 1019.0
20240223192017 67 293 3.0 6.0 0.00 0.00 0.00 36 1019.1
20240223191017 68 248 1.0 3.0 0.00 0.00 0.00 36 1019.7
20240223190017 67 225 2.0 7.0 0.00 0.00 0.00 35 1019.7
20240223185017 65 203 2.0 5.0 0.00 0.00 0.00 38 1019.7
20240223184017 66 180 2.0 5.0 0.00 0.00 0.00 38 1019.8
20240223183017 64 248 1.0 4.0 0.00 0.00 0.00 39 1020.0
20240223182017 64 225 2.0 4.0 0.00 0.00 0.00 39 1020.1
20240223181017 64 248 3.0 7.0 0.00 0.00 0.00 40 1020.1
20240223180017 63 225 2.0 6.0 0.00 0.00 0.00 42 1020.1
20240223175017 62 180 1.0 3.0 0.00 0.00 0.00 43 1020.2
20240223174017 62 248 2.0 4.0 0.00 0.00 0.00 44 1020.3
20240223173017 62 225 1.0 4.0 0.00 0.00 0.00 45 1020.2
20240223172017 61 248 2.0 4.0 0.00 0.00 0.00 47 1020.2
20240223171017 60 225 2.0 4.0 0.00 0.00 0.00 49 1020.3
20240223170017 60 248 2.0 7.0 0.00 0.00 0.00 51 1020.5
20240223165017 59 225 2.0 5.0 0.00 0.00 0.00 51 1020.6
20240223164017 59 225 2.0 7.0 0.00 0.00 0.00 51 1020.7
20240223163017 59 248 2.0 3.0 0.00 0.00 0.00 50 1020.7
20240223162017 59 0.0 3.0 0.00 0.00 0.00 49 1020.6
20240223161017 58 0.0 0.0 0.00 0.00 0.00 50 1020.6
20240223160017 57 0.0 0.0 0.00 0.00 0.00 51 1020.5
20240223155017 57 0.0 2.0 0.00 0.00 0.00 52 1020.6
20240223154017 55 0.0 1.0 0.00 0.00 0.00 55 1020.6
20240223153017 54 0.0 1.0 0.00 0.00 0.00 56 1020.9
20240223152017 53 0.0 1.0 0.00 0.00 0.00 57 1021.0
20240223151017 52 0.0 1.0 0.00 0.00 0.00 59 1020.5
20240223150017 52 0 1.0 2.0 0.00 0.00 0.00 60 1020.2
20240223145017 51 0 2.0 4.0 0.00 0.00 0.00 61 1020.1
20240223144017 50 0 1.0 2.0 0.00 0.00 0.00 65 1020.0
20240223143017 49 23 1.0 2.0 0.00 0.00 0.00 67 1019.7
20240223142017 47 23 1.0 2.0 0.00 0.00 0.00 69 1019.7
20240223141017 47 23 1.0 2.0 0.00 0.00 0.00 70 1019.8
20240223140017 48 0.0 1.0 0.00 0.00 0.00 69 1019.8
20240223135017 47 23 1.0 2.0 0.00 0.00 0.00 72 1019.8
20240223134017 46 23 3.0 4.0 0.00 0.00 0.00 74 1019.8
20240223133017 46 23 2.0 3.0 0.00 0.00 0.00 75 1019.9
20240223132017 46 23 1.0 2.0 0.00 0.00 0.00 75 1019.9
20240223131017 47 0.0 0.0 0.00 0.00 0.00 71 1019.9
20240223130017 49 0 1.0 3.0 0.00 0.00 0.00 67 1019.7
20240223125017 49 0 3.0 5.0 0.00 0.00 0.00 68 1019.5
20240223124017 49 0 3.0 5.0 0.00 0.00 0.00 68 1019.4
20240223123017 49 0 3.0 4.0 0.00 0.00 0.00 69 1019.4
20240223122017 49 0 3.0 5.0 0.00 0.00 0.00 69 1019.3
20240223121017 48 0 3.0 4.0 0.00 0.00 0.00 70 1019.2
20240223120017 48 0 2.0 4.0 0.00 0.00 0.00 70 1019.4
20240223115017 49 0 2.0 3.0 0.00 0.00 0.00 70 1019.3
20240223114017 49 0 2.0 3.0 0.00 0.00 0.00 70 1019.2
20240223113016 48 0 2.0 3.0 0.00 0.00 0.00 71 1019.3
20240223112016 49 0 1.0 2.0 0.00 0.00 0.00 70 1019.3
20240223111017 49 0 1.0 3.0 0.00 0.00 0.00 68 1019.2
20240223110017 50 0 2.0 3.0 0.00 0.00 0.00 68 1019.2
20240223105017 50 23 1.0 2.0 0.00 0.00 0.00 67 1019.4
20240223104017 51 45 1.0 2.0 0.00 0.00 0.00 66 1019.6
20240223103017 51 68 2.0 3.0 0.00 0.00 0.00 64 1019.8
20240223102016 52 45 1.0 4.0 0.00 0.00 0.00 64 1019.8
20240223101016 51 45 2.0 3.0 0.00 0.00 0.00 64 1019.8
20240223100020 51 45 2.0 2.0 0.00 0.00 0.00 64 1020.0
20240223095017 51 45 1.0 2.0 0.00 0.00 0.00 63 1020.3
20240223094017 52 68 2.0 3.0 0.00 0.00 0.00 63 1020.4
20240223093017 52 68 2.0 3.0 0.00 0.00 0.00 63 1020.5
20240223092016 51 45 2.0 3.0 0.00 0.00 0.00 64 1020.5
20240223091016 51 45 2.0 3.0 0.00 0.00 0.00 64 1020.6
20240223090016 51 23 2.0 3.0 0.00 0.00 0.00 64 1020.7
20240223085017 52 45 2.0 4.0 0.00 0.00 0.00 63 1020.8
20240223084017 51 45 3.0 5.0 0.00 0.00 0.00 65 1020.8
20240223083016 50 45 2.0 3.0 0.00 0.00 0.00 66 1020.8
20240223082016 51 45 2.0 4.0 0.00 0.00 0.00 66 1020.7
20240223081016 51 45 2.0 3.0 0.00 0.00 0.00 66 1020.8
20240223080016 51 23 3.0 3.0 0.00 0.00 0.00 66 1021.0
20240223075016 51 45 1.0 2.0 0.00 0.00 0.00 63 1020.9
20240223074016 51 45 2.0 3.0 0.00 0.00 0.00 64 1020.9
20240223073016 52 45 2.0 3.0 0.00 0.00 0.00 63 1020.7
20240223072016 51 45 1.0 3.0 0.00 0.00 0.00 64 1020.8
20240223071016 51 0 2.0 4.0 0.00 0.00 0.00 65 1020.9
20240223070017 51 23 2.0 3.0 0.00 0.00 0.00 65 1020.9
20240223065017 51 23 1.0 3.0 0.00 0.00 0.00 65 1020.7
20240223064017 53 0.0 0.0 0.00 0.00 0.00 60 1020.6
20240223063017 52 0 1.0 2.0 0.00 0.00 0.00 62 1020.8
20240223062017 52 0 2.0 3.0 0.00 0.00 0.00 62 1020.9
20240223061017 53 0 2.0 3.0 0.00 0.00 0.00 61 1020.9
20240223060017 53 0 2.0 4.0 0.00 0.00 0.00 61 1020.9
20240223055017 53 0.0 0.0 0.00 0.00 0.00 61 1020.9
20240223054017 53 0.0 1.0 0.00 0.00 0.00 61 1020.8
20240223053017 54 315 1.0 2.0 0.00 0.00 0.00 58 1020.9
20240223052017 54 315 1.0 3.0 0.00 0.00 0.00 58 1020.9
20240223051017 53 338 2.0 3.0 0.00 0.00 0.00 60 1021.0
20240223050017 53 0 2.0 3.0 0.00 0.00 0.00 61 1021.0
20240223045017 54 0 1.0 2.0 0.00 0.00 0.00 59 1020.8
20240223044017 54 0 2.0 4.0 0.00 0.00 0.00 58 1020.4
20240223043017 55 0 2.0 3.0 0.00 0.00 0.00 57 1020.4
20240223042017 54 338 1.0 3.0 0.00 0.00 0.00 58 1020.4
20240223041017 54 0 2.0 3.0 0.00 0.00 0.00 58 1020.3
20240223040017 54 0 2.0 3.0 0.00 0.00 0.00 60 1020.3
20240223035017 54 23 1.0 2.0 0.00 0.00 0.00 58 1020.3
20240223034017 56 0.0 1.0 0.00 0.00 0.00 55 1020.3
20240223033017 57 0.0 1.0 0.00 0.00 0.00 53 1020.2
20240223032017 57 113 1.0 2.0 0.00 0.00 0.00 52 1020.0
20240223031017 57 68 2.0 3.0 0.00 0.00 0.00 51 1019.9
20240223030017 57 90 2.0 3.0 0.00 0.00 0.00 52 1019.6
20240223025017 59 0.0 1.0 0.00 0.00 0.00 49 1019.7